Time;durP1;ratioP1;P1;durP2;ratioP2;P2;SDS_P1;SDS_P2;PMS_P1;PMS_P2;Temp;Humidity;BMP_temperature;BMP_pressure;BME280_temperature;BME280_humidity;BME280_pressure;Samples;Min_cycle;Max_cycle;Signal;HPM_P1;HPM_P2
2022/11/13 00:00:25;;;;;;;40.58;19.42;;;5.60;99.90;;;;;;5117488;27;20047;-73
2022/11/13 00:02:51;;;;;;;38.58;20.23;;;5.70;99.90;;;;;;5117139;28;20051;-72
2022/11/13 00:05:17;;;;;;;46.00;22.40;;;5.70;99.90;;;;;;5117939;27;20359;-73
2022/11/13 00:07:43;;;;;;;39.72;20.40;;;5.70;99.90;;;;;;5134990;27;20386;-73
2022/11/13 00:10:09;;;;;;;39.50;19.02;;;5.80;99.90;;;;;;5100062;27;20039;-73
2022/11/13 00:12:35;;;;;;;35.13;18.73;;;5.80;99.90;;;;;;5134870;27;20039;-72
2022/11/13 00:15:00;;;;;;;35.35;18.70;;;5.80;99.90;;;;;;5099407;27;20039;-72
2022/11/13 00:17:27;;;;;;;30.85;17.40;;;5.90;99.90;;;;;;5135038;27;20087;-76
2022/11/13 00:19:53;;;;;;;30.73;16.90;;;5.90;99.90;;;;;;5134795;27;20051;-71
2022/11/13 00:22:19;;;;;;;34.65;16.73;;;5.80;99.90;;;;;;5135012;27;20062;-74
2022/11/13 00:24:45;;;;;;;34.15;17.00;;;5.90;99.90;;;;;;5116450;27;20375;-74
2022/11/13 00:27:11;;;;;;;30.52;15.77;;;5.90;99.90;;;;;;5116896;27;20057;-74
2022/11/13 00:29:37;;;;;;;35.33;16.48;;;5.90;99.90;;;;;;5115839;27;20502;-82
2022/11/13 00:32:03;;;;;;;28.27;16.13;;;5.90;99.90;;;;;;5115977;27;20054;-73
2022/11/13 00:34:29;;;;;;;31.83;15.32;;;5.80;99.90;;;;;;5134620;27;20054;-72
2022/11/13 00:36:54;;;;;;;30.42;16.25;;;5.80;99.90;;;;;;5115623;27;20099;-72
2022/11/13 00:39:20;;;;;;;31.85;15.95;;;5.80;99.90;;;;;;5098934;27;20067;-73
2022/11/13 00:41:46;;;;;;;32.13;16.25;;;5.80;99.90;;;;;;5116050;27;20484;-74
2022/11/13 00:44:12;;;;;;;29.58;16.20;;;5.80;99.90;;;;;;5116638;28;20047;-74
2022/11/13 00:46:37;;;;;;;31.45;15.65;;;5.70;99.90;;;;;;5115586;28;20399;-72
2022/11/13 00:49:03;;;;;;;30.98;16.15;;;5.70;99.90;;;;;;5115522;27;20047;-72
2022/11/13 00:51:29;;;;;;;37.90;17.27;;;5.70;99.90;;;;;;5116108;28;20054;-72
2022/11/13 00:53:55;;;;;;;30.92;16.42;;;5.70;99.90;;;;;;5134176;28;20043;-72
2022/11/13 00:56:21;;;;;;;35.83;17.45;;;5.70;99.90;;;;;;5098997;28;20126;-72
2022/11/13 00:58:47;;;;;;;32.70;17.13;;;5.70;99.90;;;;;;5115429;28;20043;-72
2022/11/13 01:01:15;;;;;;;32.95;15.85;;;5.70;99.90;;;;;;5133900;28;20130;-73
2022/11/13 01:03:41;;;;;;;30.52;15.52;;;5.70;99.90;;;;;;5115091;28;20047;-79
2022/11/13 01:06:25;;;;;;;30.55;15.32;;;5.70;99.90;;;;;;5098658;28;20051;-74
2022/11/13 01:08:54;;;;;;;30.83;14.95;;;5.70;99.90;;;;;;5115434;28;20047;-71
2022/11/13 01:11:22;;;;;;;26.08;14.23;;;5.70;99.90;;;;;;5133878;28;20116;-72
2022/11/13 01:13:49;;;;;;;29.77;15.30;;;5.80;99.90;;;;;;5134582;28;20118;-74
2022/11/13 01:16:17;;;;;;;28.90;15.05;;;5.80;99.90;;;;;;5115548;28;20073;-72
2022/11/13 01:18:43;;;;;;;26.98;13.88;;;5.90;99.90;;;;;;5115143;28;20051;-76
2022/11/13 01:21:16;;;;;;;31.90;15.20;;;5.90;99.90;;;;;;5133456;28;20103;-73
2022/11/13 01:23:42;;;;;;;27.52;14.15;;;5.90;99.90;;;;;;5134213;28;20043;-73
2022/11/13 01:26:12;;;;;;;30.67;15.35;;;5.90;99.90;;;;;;5115229;28;20111;-73
2022/11/13 01:28:39;;;;;;;31.80;15.45;;;6.00;99.90;;;;;;5133328;28;20536;-73
2022/11/13 01:31:05;;;;;;;;;;;6.00;99.90;;;;;;5098739;28;20475;-74
2022/11/13 01:33:31;;;;;;;30.70;15.27;;;6.00;99.90;;;;;;5115022;28;20359;-73
2022/11/13 01:36:03;;;;;;;29.38;14.15;;;6.00;99.90;;;;;;5098911;28;20142;-73
2022/11/13 01:38:29;;;;;;;28.52;14.23;;;6.10;99.90;;;;;;5133365;28;20071;-73
2022/11/13 01:40:55;;;;;;;29.15;14.70;;;6.10;99.90;;;;;;5114933;28;20051;-72
2022/11/13 01:43:33;;;;;;;28.45;15.30;;;6.20;99.90;;;;;;5115087;28;20122;-73
2022/11/13 01:45:58;;;;;;;27.75;14.02;;;6.20;99.90;;;;;;5115296;28;20572;-72
2022/11/13 01:48:39;;;;;;;32.13;14.73;;;6.20;99.90;;;;;;5133345;28;20047;-72
2022/11/13 01:51:13;;;;;;;29.48;15.35;;;6.20;99.90;;;;;;5133813;28;20043;-73
2022/11/13 01:53:42;;;;;;;31.30;14.82;;;6.20;99.90;;;;;;5133420;28;20466;-72
2022/11/13 01:56:08;;;;;;;29.73;15.02;;;6.20;99.90;;;;;;5133132;27;20090;-72
2022/11/13 01:58:34;;;;;;;27.90;14.38;;;6.20;99.90;;;;;;5117735;27;20143;-73
2022/11/13 02:01:00;;;;;;;27.23;13.95;;;6.20;99.90;;;;;;5137568;27;20416;-73
2022/11/13 02:03:26;;;;;;;31.60;15.07;;;6.20;99.90;;;;;;5118696;27;20047;-73
2022/11/13 02:05:53;;;;;;;31.05;15.15;;;6.20;99.90;;;;;;5118470;27;20126;-73
2022/11/13 02:08:19;;;;;;;;;;;6.20;99.90;;;;;;5136729;27;20066;-73
2022/11/13 02:10:44;;;;;;;29.13;14.83;;;6.20;99.90;;;;;;5136222;27;20339;-73
2022/11/13 02:13:12;;;;;;;26.33;14.00;;;6.10;99.90;;;;;;5117476;27;20497;-73
2022/11/13 02:15:39;;;;;;;32.70;15.45;;;6.10;99.90;;;;;;5117717;27;20050;-72
2022/11/13 02:18:05;;;;;;;25.63;14.63;;;6.10;99.90;;;;;;5136575;27;20035;-71
2022/11/13 02:20:49;;;;;;;27.67;14.00;;;6.00;99.90;;;;;;5136300;27;20051;-71
2022/11/13 02:23:27;;;;;;;26.38;14.35;;;6.00;99.90;;;;;;5136516;27;20095;-73
2022/11/13 02:25:53;;;;;;;26.90;14.30;;;6.10;99.90;;;;;;5118244;27;20047;-72
2022/11/13 02:28:19;;;;;;;29.25;14.90;;;6.00;99.90;;;;;;5136526;27;20043;-72
2022/11/13 02:30:45;;;;;;;29.00;14.77;;;6.00;99.90;;;;;;5118264;27;20483;-72
2022/11/13 02:33:28;;;;;;;29.70;15.85;;;6.00;99.90;;;;;;5101066;27;20046;-72
2022/11/13 02:35:54;;;;;;;30.52;14.93;;;6.00;99.90;;;;;;5101094;27;20097;-72
2022/11/13 02:38:20;;;;;;;27.45;14.70;;;6.00;99.90;;;;;;5100819;27;20078;-73
2022/11/13 02:40:46;;;;;;;26.75;14.10;;;6.00;99.90;;;;;;5118083;27;20047;-77
2022/11/13 02:43:12;;;;;;;27.20;14.35;;;6.00;99.90;;;;;;5118561;27;20367;-73
2022/11/13 02:45:37;;;;;;;28.05;14.02;;;5.90;99.90;;;;;;5118071;27;20054;-72
2022/11/13 02:48:04;;;;;;;29.85;15.43;;;5.90;99.90;;;;;;5117990;27;20110;-72
2022/11/13 02:50:31;;;;;;;28.05;14.55;;;5.90;99.90;;;;;;5136172;27;20047;-75
2022/11/13 02:52:57;;;;;;;27.65;13.95;;;5.90;99.90;;;;;;5117790;27;20074;-72
2022/11/13 02:55:23;;;;;;;31.08;14.38;;;5.90;99.90;;;;;;5136133;27;20047;-72
2022/11/13 02:57:48;;;;;;;26.58;14.57;;;5.90;99.90;;;;;;5135984;27;20043;-73
2022/11/13 03:00:15;;;;;;;35.92;15.13;;;5.90;99.90;;;;;;5100920;27;20050;-72
2022/11/13 03:02:40;;;;;;;28.47;14.43;;;5.80;99.90;;;;;;5117415;27;20196;-73
2022/11/13 03:05:07;;;;;;;30.23;14.50;;;5.80;99.90;;;;;;5135713;27;20129;-73
2022/11/13 03:07:33;;;;;;;30.73;15.40;;;5.80;99.90;;;;;;5117421;27;20096;-73
2022/11/13 03:09:59;;;;;;;31.60;14.80;;;5.80;99.90;;;;;;5117889;27;20075;-74
2022/11/13 03:12:25;;;;;;;29.08;14.70;;;5.80;99.90;;;;;;5135696;27;20125;-73
2022/11/13 03:14:50;;;;;;;26.73;14.60;;;5.80;99.90;;;;;;5099991;27;20058;-74
2022/11/13 03:17:16;;;;;;;30.58;14.98;;;5.80;99.90;;;;;;5117727;27;20039;-74
2022/11/13 03:19:43;;;;;;;27.20;14.20;;;5.80;99.90;;;;;;5135538;27;20108;-73
2022/11/13 03:22:08;;;;;;;28.95;15.40;;;5.90;99.90;;;;;;5117203;27;20047;-73
2022/11/13 03:24:34;;;;;;;29.73;15.35;;;5.90;99.90;;;;;;5135197;27;20043;-83
2022/11/13 03:27:00;;;;;;;27.40;14.18;;;5.90;99.90;;;;;;5117226;27;20122;-83
2022/11/13 03:29:26;;;;;;;28.85;14.40;;;5.80;99.90;;;;;;5136781;27;20095;-83
2022/11/13 03:31:51;;;;;;;28.88;14.95;;;5.80;99.90;;;;;;5136275;27;20054;-85
2022/11/13 03:34:17;;;;;;;30.73;14.98;;;5.80;99.90;;;;;;5116970;27;20049;-84
2022/11/13 03:36:43;;;;;;;28.27;14.57;;;5.80;99.90;;;;;;5116619;27;20463;-83
2022/11/13 03:39:08;;;;;;;28.02;14.80;;;5.80;99.90;;;;;;5134827;27;20050;-84
2022/11/13 03:41:34;;;;;;;32.80;14.80;;;5.90;99.90;;;;;;5134992;27;20123;-86
2022/11/13 03:44:00;;;;;;;33.55;15.13;;;5.90;99.90;;;;;;5135745;27;20055;-83
2022/11/13 03:46:26;;;;;;;27.38;14.65;;;5.90;99.90;;;;;;5118289;27;20126;-87
2022/11/13 03:48:51;;;;;;;26.25;14.32;;;5.90;99.90;;;;;;5118832;27;20077;-85
2022/11/13 03:51:17;;;;;;;30.70;15.23;;;5.90;99.90;;;;;;5135464;27;20082;-84
2022/11/13 03:53:43;;;;;;;27.98;15.15;;;6.00;99.90;;;;;;5135084;27;20061;-82
2022/11/13 03:56:08;;;;;;;28.40;15.07;;;6.00;99.90;;;;;;5116877;27;20047;-84
2022/11/13 03:58:34;;;;;;;28.92;15.05;;;6.00;99.90;;;;;;5134975;27;20051;-82
2022/11/13 04:01:00;;;;;;;26.38;14.05;;;6.00;99.90;;;;;;5116885;27;20062;-83
2022/11/13 04:03:26;;;;;;;29.05;15.13;;;6.00;99.90;;;;;;5135595;27;20413;-78
2022/11/13 04:05:51;;;;;;;27.77;14.50;;;6.00;99.90;;;;;;5117391;27;20387;-84
2022/11/13 04:08:18;;;;;;;28.63;15.55;;;6.00;99.90;;;;;;5099762;27;20047;-83
2022/11/13 04:10:44;;;;;;;29.58;15.32;;;6.00;99.90;;;;;;5135336;27;20042;-84
2022/11/13 04:13:10;;;;;;;30.98;15.75;;;6.00;99.90;;;;;;5117338;27;20509;-84
2022/11/13 04:15:36;;;;;;;30.55;15.07;;;5.90;99.90;;;;;;5136093;27;20134;-85
2022/11/13 04:18:03;;;;;;;33.63;15.85;;;6.00;99.90;;;;;;5135545;27;20079;-85
2022/11/13 04:20:29;;;;;;;31.90;15.07;;;5.90;99.90;;;;;;5116785;27;20410;-85
2022/11/13 04:22:58;;;;;;;28.27;14.55;;;6.00;99.90;;;;;;5149469;27;20107;-84
2022/11/13 04:25:25;;;;;;;31.85;15.85;;;5.90;99.90;;;;;;5152733;27;20034;-82
2022/11/13 04:27:51;;;;;;;31.33;15.63;;;5.90;99.90;;;;;;5146839;27;20051;-84
2022/11/13 04:30:18;;;;;;;33.60;14.88;;;5.80;99.90;;;;;;5127531;27;20043;-84
2022/11/13 04:32:44;;;;;;;31.80;15.18;;;5.80;99.90;;;;;;5140883;27;20162;-84
2022/11/13 04:35:10;;;;;;;30.38;14.65;;;5.80;99.90;;;;;;5120560;27;20081;-83
2022/11/13 04:37:36;;;;;;;29.02;15.48;;;5.80;99.90;;;;;;5136369;27;20039;-83
2022/11/13 04:40:03;;;;;;;34.80;15.82;;;5.80;99.90;;;;;;5117705;28;20143;-77
2022/11/13 04:45:14;;;;;;;27.48;14.57;;;5.80;99.90;;;;;;5119449;28;20047;-84
2022/11/13 04:47:40;;;;;;;27.67;14.55;;;5.80;99.90;;;;;;5134705;27;20047;-84
2022/11/13 04:50:06;;;;;;;27.60;14.57;;;5.80;99.90;;;;;;5134808;27;20047;-83
2022/11/13 04:52:31;;;;;;;29.85;14.88;;;5.80;99.90;;;;;;5135903;27;20039;-85
2022/11/13 04:54:57;;;;;;;30.83;14.88;;;5.80;99.90;;;;;;5135045;28;20099;-85
2022/11/13 04:57:23;;;;;;;29.83;14.90;;;5.80;99.90;;;;;;5135101;28;20086;-84
2022/11/13 04:59:48;;;;;;;29.15;14.98;;;5.80;99.90;;;;;;5134849;28;20051;-82
2022/11/13 05:02:14;;;;;;;27.90;15.30;;;5.80;99.90;;;;;;5134488;28;20088;-84
2022/11/13 05:04:40;;;;;;;29.92;14.90;;;5.70;99.90;;;;;;5134891;28;20046;-84
2022/11/13 05:07:06;;;;;;;27.80;15.52;;;5.70;99.90;;;;;;5099047;28;20348;-84
2022/11/13 05:09:31;;;;;;;30.15;15.13;;;5.70;99.90;;;;;;5135613;28;20104;-84
2022/11/13 05:11:57;;;;;;;27.70;14.48;;;5.70;99.90;;;;;;5100741;28;20135;-84
2022/11/13 05:14:23;;;;;;;29.80;15.43;;;5.70;99.90;;;;;;5116757;28;20054;-84
2022/11/13 05:16:51;;;;;;;33.25;15.55;;;5.70;99.90;;;;;;5138072;28;20130;-84
2022/11/13 05:19:17;;;;;;;28.25;15.18;;;5.60;99.90;;;;;;5098476;28;20091;-85
2022/11/13 05:21:43;;;;;;;26.08;14.05;;;5.60;99.90;;;;;;5117273;28;20059;-85
2022/11/13 05:24:10;;;;;;;28.52;15.43;;;5.60;99.90;;;;;;5117642;28;20368;-85
2022/11/13 05:26:37;;;;;;;30.73;15.75;;;5.60;99.90;;;;;;5100688;28;20047;-83
2022/11/13 05:29:03;;;;;;;;;;;5.60;99.90;;;;;;5122196;28;20476;-84
2022/11/13 05:31:29;;;;;;;26.50;14.07;;;5.60;99.90;;;;;;5124460;28;19920;-80
2022/11/13 05:33:55;;;;;;;28.20;13.93;;;5.50;99.90;;;;;;5135212;28;20089;-83
2022/11/13 05:36:21;;;;;;;35.22;15.93;;;5.50;99.90;;;;;;5134352;28;20155;-81
2022/11/13 05:38:47;;;;;;;30.02;14.68;;;5.50;99.90;;;;;;5129656;28;20035;-81
2022/11/13 05:41:18;;;;;;;29.17;15.30;;;5.50;99.90;;;;;;5105287;28;20051;-82
2022/11/13 05:43:44;;;;;;;29.45;15.00;;;5.40;99.90;;;;;;5121729;28;20044;-84
2022/11/13 05:46:14;;;;;;;31.17;15.38;;;5.30;99.90;;;;;;5120002;28;20168;-85
2022/11/13 05:48:40;;;;;;;32.05;15.80;;;5.30;99.90;;;;;;5122265;28;20062;-81
2022/11/13 05:51:31;;;;;;;30.58;15.60;;;5.30;99.90;;;;;;5122148;28;20131;-83
2022/11/13 05:53:57;;;;;;;28.98;15.40;;;5.30;99.90;;;;;;5112912;28;20056;-84
2022/11/13 05:56:33;;;;;;;27.45;15.35;;;5.30;99.90;;;;;;5120389;28;20052;-84
2022/11/13 05:59:00;;;;;;;31.05;14.98;;;5.30;99.90;;;;;;5103034;28;20048;-84
2022/11/13 06:01:27;;;;;;;28.75;15.65;;;5.30;99.90;;;;;;5120535;28;20050;-83
2022/11/13 06:03:57;;;;;;;;;;;5.40;99.90;;;;;;5121890;27;20345;-84
2022/11/13 06:06:23;;;;;;;27.80;14.98;;;5.40;99.90;;;;;;5084207;28;19968;-84
2022/11/13 06:08:51;;;;;;;35.08;16.23;;;5.40;99.90;;;;;;5118578;28;20395;-85
2022/11/13 06:11:18;;;;;;;;;;;5.40;99.90;;;;;;5120169;28;20047;-84
2022/11/13 06:13:45;;;;;;;28.00;14.27;;;5.30;99.90;;;;;;5120524;28;19919;-82
2022/11/13 06:16:12;;;;;;;31.20;15.73;;;5.30;99.90;;;;;;5119548;28;20113;-83
2022/11/13 06:18:39;;;;;;;32.97;16.00;;;5.30;99.90;;;;;;5121019;27;20093;-84
2022/11/13 06:21:12;;;;;;;30.60;15.30;;;5.30;99.90;;;;;;5122503;27;20059;-84
2022/11/13 06:23:39;;;;;;;29.98;14.60;;;5.20;99.90;;;;;;5139666;27;20067;-85
2022/11/13 06:26:14;;;;;;;30.17;14.97;;;5.20;99.90;;;;;;5120363;27;20418;-82
2022/11/13 06:28:40;;;;;;;31.50;15.23;;;5.20;99.90;;;;;;5119582;27;20287;-84
2022/11/13 06:31:14;;;;;;;29.83;15.68;;;5.20;99.90;;;;;;5137372;27;20047;-84
2022/11/13 06:33:41;;;;;;;29.90;15.57;;;5.20;99.90;;;;;;5137499;27;20058;-82
2022/11/13 06:36:13;;;;;;;29.55;15.02;;;5.20;99.90;;;;;;5146178;27;20360;-84
2022/11/13 06:38:40;;;;;;;33.10;15.45;;;5.20;99.90;;;;;;5147104;27;20046;-81
2022/11/13 06:41:07;;;;;;;29.05;15.23;;;5.20;99.90;;;;;;5143339;27;20047;-85
2022/11/13 06:43:33;;;;;;;31.02;15.82;;;5.20;99.90;;;;;;5139413;27;20050;-85
2022/11/13 06:46:04;;;;;;;37.05;15.07;;;5.20;99.90;;;;;;5123039;27;20377;-84
2022/11/13 06:48:30;;;;;;;32.35;15.38;;;5.20;99.90;;;;;;5137985;27;20043;-83
2022/11/13 06:51:04;;;;;;;31.42;15.45;;;5.30;99.90;;;;;;5137876;27;20061;-84
2022/11/13 06:53:31;;;;;;;33.03;16.42;;;5.20;99.90;;;;;;5118951;27;20082;-87
2022/11/13 06:55:57;;;;;;;32.08;15.60;;;5.10;99.90;;;;;;5102254;27;20043;-85
2022/11/13 06:58:23;;;;;;;31.35;15.88;;;5.10;99.90;;;;;;5136902;27;20385;-84
2022/11/13 07:00:49;;;;;;;29.77;15.38;;;5.10;99.90;;;;;;5137735;27;20039;-85
2022/11/13 07:03:17;;;;;;;32.58;15.40;;;5.10;99.90;;;;;;5118877;27;20050;-85
2022/11/13 07:05:44;;;;;;;31.45;15.02;;;5.10;99.90;;;;;;5136816;27;20047;-83
2022/11/13 07:08:10;;;;;;;30.17;15.52;;;5.10;99.90;;;;;;5136653;27;20387;-83
2022/11/13 07:10:36;;;;;;;28.48;14.73;;;5.10;99.90;;;;;;5136617;27;20047;-82
2022/11/13 07:13:02;;;;;;;28.50;14.37;;;5.10;99.90;;;;;;5136970;27;20047;-81
2022/11/13 07:15:28;;;;;;;29.95;15.07;;;5.10;99.90;;;;;;5120237;27;20296;-83
2022/11/13 07:17:54;;;;;;;28.83;15.82;;;5.10;99.90;;;;;;5136483;27;20191;-83
2022/11/13 07:20:19;;;;;;;33.97;15.65;;;5.10;99.90;;;;;;5137034;27;20054;-80
2022/11/13 07:22:45;;;;;;;29.88;15.35;;;5.10;99.90;;;;;;5083659;27;20082;-82
2022/11/13 07:25:11;;;;;;;30.58;15.73;;;5.10;99.90;;;;;;5136210;27;20050;-82
2022/11/13 07:27:36;;;;;;;29.52;15.02;;;5.20;99.90;;;;;;5117601;27;20475;-83
2022/11/13 07:30:02;;;;;;;27.58;15.18;;;5.20;99.90;;;;;;5136273;27;20054;-83
2022/11/13 07:32:28;;;;;;;45.17;27.65;;;5.20;99.90;;;;;;5100272;27;20066;-83
2022/11/13 07:34:54;;;;;;;32.90;16.63;;;5.20;99.90;;;;;;5135425;27;20069;-83
2022/11/13 07:37:19;;;;;;;32.63;16.60;;;5.20;99.90;;;;;;5117970;27;20055;-83
2022/11/13 07:39:45;;;;;;;27.77;14.70;;;5.30;99.90;;;;;;5117304;27;20051;-83
2022/11/13 07:42:12;;;;;;;28.25;14.82;;;5.40;99.90;;;;;;5135074;27;20050;-83
2022/11/13 07:44:37;;;;;;;27.97;14.40;;;5.40;99.90;;;;;;5100333;27;20082;-83
2022/11/13 07:47:03;;;;;;;26.98;14.60;;;5.50;99.90;;;;;;5117170;27;20054;-83
2022/11/13 07:49:29;;;;;;;31.20;15.23;;;5.50;99.90;;;;;;5134630;27;20039;-84
2022/11/13 07:51:54;;;;;;;32.83;15.10;;;5.50;99.90;;;;;;5135235;27;20047;-84
2022/11/13 07:54:20;;;;;;;29.88;15.73;;;5.60;99.90;;;;;;5135119;27;20062;-85
2022/11/13 07:56:46;;;;;;;28.70;15.93;;;5.60;99.90;;;;;;5134927;27;20054;-83
2022/11/13 07:59:12;;;;;;;33.63;18.75;;;5.60;99.90;;;;;;5118229;27;20122;-84
2022/11/13 08:01:38;;;;;;;42.50;29.00;;;5.70;99.90;;;;;;5137254;27;20059;-84
2022/11/13 08:04:03;;;;;;;83.43;48.88;;;5.80;99.90;;;;;;5136582;27;20126;-84
2022/11/13 08:06:29;;;;;;;50.35;30.77;;;5.80;99.90;;;;;;5144985;27;20099;-83
2022/11/13 08:08:55;;;;;;;32.33;16.35;;;5.90;99.90;;;;;;5128765;27;20136;-83
2022/11/13 08:11:21;;;;;;;29.45;15.80;;;5.90;99.90;;;;;;5132909;27;20039;-81
2022/11/13 08:13:46;;;;;;;29.25;15.55;;;6.00;99.90;;;;;;5132747;27;20054;-82
2022/11/13 08:16:12;;;;;;;32.80;14.20;;;6.00;99.90;;;;;;5149855;27;20103;-83
2022/11/13 08:18:38;;;;;;;27.70;16.52;;;6.10;99.90;;;;;;5094534;27;20481;-84
2022/11/13 08:21:04;;;;;;;25.95;14.10;;;6.10;99.90;;;;;;5130743;27;20051;-85
2022/11/13 08:23:31;;;;;;;24.10;14.00;;;6.20;99.90;;;;;;5129360;27;20126;-84
2022/11/13 08:25:57;;;;;;;24.27;13.05;;;6.20;99.90;;;;;;5149899;27;20074;-79
2022/11/13 08:28:29;;;;;;;26.17;14.18;;;6.30;99.90;;;;;;5140578;27;20031;-82
2022/11/13 08:30:54;;;;;;;24.10;13.15;;;6.30;99.90;;;;;;5119734;27;20043;-81
2022/11/13 08:33:20;;;;;;;23.55;12.75;;;6.40;99.90;;;;;;5134546;27;20479;-83
2022/11/13 08:35:57;;;;;;;23.27;13.07;;;6.50;99.90;;;;;;5121006;27;20191;-83
2022/11/13 08:38:22;;;;;;;22.05;12.02;;;6.60;99.90;;;;;;5118382;27;20062;-83
2022/11/13 08:40:49;;;;;;;22.80;12.10;;;6.70;99.90;;;;;;5137448;27;20043;-83
2022/11/13 08:43:15;;;;;;;21.98;12.15;;;6.80;99.90;;;;;;5121444;27;20043;-83
2022/11/13 08:45:41;;;;;;;23.08;12.60;;;6.90;99.90;;;;;;5138396;27;20039;-79
2022/11/13 08:48:07;;;;;;;22.02;12.57;;;7.00;99.90;;;;;;5121589;27;20035;-85
2022/11/13 08:50:40;;;;;;;23.02;12.07;;;7.00;99.90;;;;;;5141582;27;20459;-83
2022/11/13 08:53:06;;;;;;;23.88;11.77;;;7.10;99.90;;;;;;5141278;27;20122;-84
2022/11/13 08:55:32;;;;;;;21.35;11.82;;;7.20;99.90;;;;;;5142546;28;20035;-88
2022/11/13 08:57:59;;;;;;;20.38;11.40;;;7.20;99.90;;;;;;5125517;28;20103;-84
2022/11/13 09:00:27;;;;;;;22.27;12.38;;;7.30;99.90;;;;;;5106381;28;20043;-83
2022/11/13 09:03:02;;;;;;;19.80;10.85;;;7.40;99.90;;;;;;5142592;28;20087;-89
2022/11/13 09:05:28;;;;;;;22.13;11.75;;;7.40;99.90;;;;;;5089696;28;20043;-86
2022/11/13 09:08:00;;;;;;;21.60;12.00;;;7.50;99.90;;;;;;5146001;27;20493;-84
2022/11/13 09:10:27;;;;;;;23.45;12.35;;;7.50;99.90;;;;;;5127225;27;20327;-83
2022/11/13 09:13:00;;;;;;;21.92;11.75;;;7.60;99.90;;;;;;5126609;27;20049;-85
2022/11/13 09:15:27;;;;;;;22.95;12.20;;;7.60;99.90;;;;;;5146025;27;20051;-84
2022/11/13 09:18:01;;;;;;;23.50;12.18;;;7.70;99.90;;;;;;5145976;27;20086;-84
2022/11/13 09:20:33;;;;;;;21.50;11.98;;;7.70;99.90;;;;;;5150394;27;20051;-84
2022/11/13 09:23:06;;;;;;;20.35;11.55;;;7.80;99.90;;;;;;5152321;27;20107;-85
2022/11/13 09:25:35;;;;;;;20.42;11.30;;;7.80;99.90;;;;;;5131141;27;20082;-79
2022/11/13 09:28:02;;;;;;;22.05;12.02;;;7.90;99.90;;;;;;5148461;27;20068;-85
2022/11/13 09:30:30;;;;;;;22.40;12.20;;;8.00;99.90;;;;;;5132591;27;20134;-82
2022/11/13 09:32:57;;;;;;;20.38;11.40;;;8.00;99.90;;;;;;5114856;27;20047;-85
2022/11/13 09:35:33;;;;;;;22.88;11.55;;;8.10;99.90;;;;;;5149833;27;20091;-85
2022/11/13 09:38:05;;;;;;;19.58;11.90;;;8.20;99.90;;;;;;5147714;27;20039;-86
2022/11/13 09:40:47;;;;;;;19.67;11.35;;;8.30;99.90;;;;;;5126621;27;20323;-87
2022/11/13 09:43:33;;;;;;;19.38;10.77;;;8.40;99.90;;;;;;5127319;27;20046;-86
2022/11/13 09:46:04;;;;;;;16.83;9.63;;;8.50;99.90;;;;;;5125415;27;20047;-85
2022/11/13 09:48:35;;;;;;;17.13;10.02;;;8.60;99.90;;;;;;5125709;27;20069;-87
2022/11/13 09:51:07;;;;;;;16.73;9.00;;;8.60;99.90;;;;;;5141431;27;20479;-87
2022/11/13 09:53:35;;;;;;;17.73;9.45;;;8.70;99.90;;;;;;5094359;27;20047;-84
2022/11/13 09:56:14;;;;;;;18.95;9.90;;;8.70;99.90;;;;;;5121867;27;20455;-86
2022/11/13 09:58:40;;;;;;;18.02;9.98;;;8.70;99.90;;;;;;5143846;27;20043;-87
2022/11/13 10:01:29;;;;;;;17.63;9.90;;;8.80;99.90;;;;;;5142155;27;20099;-85
2022/11/13 10:04:00;;;;;;;19.40;9.88;;;8.80;99.90;;;;;;5139388;27;20138;-86
2022/11/13 10:06:58;;;;;;;15.10;9.45;;;8.90;99.90;;;;;;5121633;27;20096;-88
2022/11/13 10:09:27;;;;;;;16.80;9.75;;;9.00;99.90;;;;;;5140070;27;20043;-87
2022/11/13 10:11:59;;;;;;;19.88;10.43;;;9.20;99.90;;;;;;5104868;27;20099;-85
2022/11/13 10:14:30;;;;;;;15.93;9.10;;;9.20;99.90;;;;;;5123928;27;20051;-87
2022/11/13 10:17:08;;;;;;;18.27;9.57;;;9.30;99.90;;;;;;5143976;27;20062;-86
2022/11/13 10:19:53;;;;;;;19.33;9.85;;;9.50;99.90;;;;;;5145216;27;20067;-86
2022/11/13 10:22:35;;;;;;;18.08;9.93;;;9.60;99.90;;;;;;5093270;27;20039;-87
2022/11/13 10:25:15;;;;;;;16.05;9.43;;;9.70;99.90;;;;;;5124770;27;20054;-85
2022/11/13 10:27:49;;;;;;;14.23;8.65;;;9.80;99.90;;;;;;5122593;27;20074;-84
2022/11/13 10:30:17;;;;;;;17.95;9.57;;;9.80;99.90;;;;;;5122722;27;20042;-86
2022/11/13 10:32:43;;;;;;;18.27;9.88;;;10.00;99.90;;;;;;5122925;27;20148;-83
2022/11/13 10:35:36;;;;;;;15.88;9.48;;;10.00;99.90;;;;;;5105613;27;20375;-84
2022/11/13 10:38:04;;;;;;;17.15;9.85;;;10.10;99.90;;;;;;5124278;27;20047;-86
2022/11/13 10:40:33;;;;;;;18.42;9.52;;;10.20;99.90;;;;;;5143054;27;20072;-86
2022/11/13 10:43:21;;;;;;;16.52;9.52;;;10.30;99.90;;;;;;5141817;27;20049;-86
2022/11/13 10:46:04;;;;;;;18.00;9.25;;;10.40;99.90;;;;;;5120354;27;20090;-86
2022/11/13 10:48:35;;;;;;;16.50;9.98;;;10.40;99.90;;;;;;5123204;27;20044;-85
2022/11/13 10:51:05;;;;;;;14.80;8.88;;;10.40;99.90;;;;;;5107929;27;20051;-86
2022/11/13 10:53:40;;;;;;;17.25;9.27;;;10.50;99.90;;;;;;5143852;27;20054;-87
2022/11/13 10:56:19;;;;;;;14.88;9.23;;;10.60;99.90;;;;;;5125251;27;20043;-86
2022/11/13 10:58:44;;;;;;;16.35;9.25;;;10.70;99.90;;;;;;5121030;27;20047;-85
2022/11/13 11:01:23;;;;;;;16.25;9.00;;;10.70;99.90;;;;;;5106487;27;20047;-87
2022/11/13 11:03:49;;;;;;;14.25;7.70;;;10.70;99.90;;;;;;5123381;27;20050;-86
2022/11/13 11:06:15;;;;;;;13.85;8.00;;;10.80;99.90;;;;;;5139723;27;20192;-87
2022/11/13 11:08:41;;;;;;;13.82;8.15;;;10.90;99.90;;;;;;5124602;27;20387;-86
2022/11/13 11:14:21;;;;;;;14.95;8.73;;;11.00;99.90;;;;;;5142115;27;20051;-87
2022/11/13 11:16:50;;;;;;;15.27;7.68;;;11.10;99.90;;;;;;5124619;27;20179;-87
2022/11/13 11:19:20;;;;;;;14.45;8.90;;;11.10;99.90;;;;;;5127419;27;20062;-86
2022/11/13 11:21:50;;;;;;;13.50;7.68;;;11.20;99.90;;;;;;5149116;27;20055;-83
2022/11/13 11:24:20;;;;;;;14.95;7.95;;;11.20;99.90;;;;;;5151263;27;20130;-87
2022/11/13 11:27:05;;;;;;;14.10;8.38;;;11.40;99.90;;;;;;5143616;27;20234;-87
2022/11/13 11:29:48;;;;;;;18.90;9.57;;;11.40;99.90;;;;;;5120215;28;20146;-86
2022/11/13 11:32:41;;;;;;;17.50;9.23;;;11.50;99.90;;;;;;5142041;27;20055;-86
2022/11/13 11:35:16;;;;;;;17.20;9.07;;;11.50;99.90;;;;;;5144255;27;20134;-84
2022/11/13 11:38:02;;;;;;;19.10;9.52;;;11.50;99.90;;;;;;5140544;27;20047;-85
2022/11/13 11:40:37;;;;;;;15.00;8.77;;;11.60;99.90;;;;;;5138833;27;20057;-88
2022/11/13 11:43:16;;;;;;;17.17;9.15;;;11.70;99.90;;;;;;5141662;27;20502;-88
2022/11/13 11:45:44;;;;;;;14.90;9.10;;;11.60;99.90;;;;;;5143433;27;20054;-81
2022/11/13 11:48:15;;;;;;;15.60;9.02;;;11.70;99.90;;;;;;5105762;27;20463;-89
2022/11/13 11:50:52;;;;;;;15.32;8.95;;;11.70;99.90;;;;;;5140478;27;20046;-85
2022/11/13 11:53:30;;;;;;;14.70;8.52;;;11.70;99.90;;;;;;5150955;27;20039;-83
2022/11/13 11:56:27;;;;;;;15.05;8.63;;;11.70;99.90;;;;;;5151509;27;20080;-84
2022/11/13 11:59:18;;;;;;;14.93;8.68;;;11.80;99.90;;;;;;5149366;27;20043;-87
2022/11/13 12:02:05;;;;;;;18.58;9.15;;;11.80;99.90;;;;;;5148634;27;20041;-83
2022/11/13 12:04:34;;;;;;;;;;;11.80;99.90;;;;;;5145322;27;20493;-84
2022/11/13 12:07:24;;;;;;;15.80;8.75;;;11.80;99.90;;;;;;5125392;27;20009;-85
2022/11/13 12:10:31;;;;;;;17.27;9.10;;;11.90;99.90;;;;;;5128012;27;20054;-86
2022/11/13 12:13:02;;;;;;;16.50;8.60;;;11.90;99.90;;;;;;5123877;27;20475;-81
2022/11/13 12:15:55;;;;;;;15.57;8.18;;;11.90;99.90;;;;;;5109024;27;20114;-86
2022/11/13 12:18:39;;;;;;;14.13;8.07;;;11.90;99.90;;;;;;5144457;27;20035;-85
2022/11/13 12:21:37;;;;;;;15.38;8.45;;;12.00;99.90;;;;;;5144347;27;20074;-90
2022/11/13 12:24:42;;;;;;;14.75;8.55;;;12.10;99.90;;;;;;5127332;27;20046;-89
2022/11/13 12:27:35;;;;;;;16.50;8.57;;;12.10;99.90;;;;;;5115409;27;20058;-88
2022/11/13 12:30:22;;;;;;;14.00;8.02;;;12.10;99.90;;;;;;5126273;27;20070;-89
2022/11/13 12:33:12;;;;;;;16.38;7.97;;;12.20;99.90;;;;;;5127221;27;20058;-85
2022/11/13 12:35:39;;;;;;;13.45;7.70;;;12.20;99.90;;;;;;5106706;27;20103;-87
2022/11/13 12:38:33;;;;;;;15.07;8.30;;;12.20;99.90;;;;;;5143089;27;20068;-88
2022/11/13 12:41:02;;;;;;;11.98;7.28;;;12.20;99.90;;;;;;5109098;27;20071;-84
2022/11/13 12:43:43;;;;;;;12.90;7.18;;;12.20;99.90;;;;;;5125068;27;20061;-81
2022/11/13 12:46:12;;;;;;;13.90;7.30;;;12.30;99.90;;;;;;5122313;28;20066;-85
2022/11/13 12:48:43;;;;;;;13.48;6.13;;;12.40;99.90;;;;;;5120610;28;20070;-88
2022/11/13 12:51:12;;;;;;;13.18;6.75;;;12.50;99.90;;;;;;5121258;27;20115;-87
2022/11/13 12:53:53;;;;;;;12.90;7.07;;;12.50;99.90;;;;;;5121531;27;20039;-79
2022/11/13 12:56:26;;;;;;;13.75;6.60;;;12.60;99.90;;;;;;5147265;28;20073;-89